Time,TemperatureF,DewpointF,PressureIn,WindDirection,WindDirectionDegrees,WindSpeedMPH,WindSpeedGustMPH,Humidity,HourlyPrecipIn,Conditions,Clouds,dailyrainin,SoftwareType,DateUTC
2013-06-09 00:06:00,58.6,54.7,29.63,SE,135,0.0,-999.0,87,-99.99,,,0.00,Acu-Link.com,2013-06-09 07:06:00,
2013-06-09 00:36:00,58.3,55.1,29.63,NNE,22,2.7,-999.0,89,-99.99,,,0.00,Acu-Link.com,2013-06-09 07:36:00,
2013-06-09 00:51:00,58.1,54.9,29.63,ENE,67,0.0,-999.0,89,-99.99,,,0.00,Acu-Link.com,2013-06-09 07:51:00,
2013-06-09 01:06:00,57.9,55.0,29.63,WSW,247,3.7,-999.0,90,-99.99,,,0.00,Acu-Link.com,2013-06-09 08:06:00,
2013-06-09 01:22:00,57.9,55.0,29.63,NNE,22,0.0,-999.0,90,-99.99,,,0.00,Acu-Link.com,2013-06-09 08:22:00,
2013-06-09 01:37:00,57.9,55.0,29.63,South,180,0.0,-999.0,90,-99.99,,,0.00,Acu-Link.com,2013-06-09 08:37:00,
2013-06-09 01:52:00,57.9,55.3,29.63,NNE,22,2.7,-999.0,91,-99.99,,,0.00,Acu-Link.com,2013-06-09 08:52:00,
2013-06-09 02:08:00,57.7,55.1,29.63,NNW,337,1.1,-999.0,91,-99.99,,,0.00,Acu-Link.com,2013-06-09 09:08:00,
2013-06-09 02:23:00,57.6,55.0,29.64,NW,315,0.0,-999.0,91,-99.99,,,0.00,Acu-Link.com,2013-06-09 09:23:00,
2013-06-09 02:42:00,57.0,54.7,29.63,North,0,0.0,-999.0,92,-99.99,,,0.00,Acu-Link.com,2013-06-09 09:42:00,
2013-06-09 02:57:00,57.0,55.0,29.64,NW,315,1.7,-999.0,93,-99.99,,,0.00,Acu-Link.com,2013-06-09 09:57:00,
2013-06-09 03:13:00,57.0,55.0,29.64,NW,315,2.7,-999.0,93,-99.99,,,0.00,Acu-Link.com,2013-06-09 10:13:00,
2013-06-09 03:28:00,57.0,55.3,29.64,North,0,3.2,-999.0,94,-99.99,,,0.00,Acu-Link.com,2013-06-09 10:28:00,
2013-06-09 03:43:00,57.0,55.3,29.64,North,0,2.2,-999.0,94,-99.99,,,0.00,Acu-Link.com,2013-06-09 10:43:00,
2013-06-09 03:58:00,56.8,55.1,29.63,North,0,5.8,-999.0,94,-99.99,,,0.00,Acu-Link.com,2013-06-09 10:58:00,
2013-06-09 04:14:00,56.7,55.3,29.63,NNE,22,2.7,-999.0,95,-99.99,,,0.00,Acu-Link.com,2013-06-09 11:14:00,
2013-06-09 04:29:00,56.5,55.1,29.63,North,0,2.7,-999.0,95,-99.99,,,0.00,Acu-Link.com,2013-06-09 11:29:00,
2013-06-09 04:44:00,56.5,55.4,29.63,NNE,22,7.3,-999.0,96,-99.99,,,0.00,Acu-Link.com,2013-06-09 11:44:00,
2013-06-09 04:59:00,56.5,55.4,29.63,ESE,112,6.3,-999.0,96,-99.99,,,0.00,Acu-Link.com,2013-06-09 11:59:00,
2013-06-09 05:14:00,56.5,55.4,29.64,ESE,112,4.7,-999.0,96,-99.99,,,0.00,Acu-Link.com,2013-06-09 12:14:00,
2013-06-09 05:29:00,56.5,55.4,29.64,WNW,292,5.3,-999.0,96,-99.99,,,0.00,Acu-Link.com,2013-06-09 12:29:00,
2013-06-09 05:45:00,56.5,55.4,29.65,WNW,292,3.7,-999.0,96,-99.99,,,0.00,Acu-Link.com,2013-06-09 12:45:00,
2013-06-09 06:00:00,56.5,55.4,29.65,SSE,157,5.3,-999.0,96,-99.99,,,0.00,Acu-Link.com,2013-06-09 13:00:00,
2013-06-09 06:15:00,56.7,55.6,29.65,NNW,337,8.3,-999.0,96,-99.99,,,0.00,Acu-Link.com,2013-06-09 13:15:00,
2013-06-09 06:30:00,56.8,55.4,29.66,SW,225,5.8,-999.0,95,-99.99,,,0.00,Acu-Link.com,2013-06-09 13:30:00,
2013-06-09 06:46:00,57.0,55.6,29.66,WNW,292,4.2,-999.0,95,-99.99,,,0.00,Acu-Link.com,2013-06-09 13:46:00,
2013-06-09 07:01:00,57.2,55.5,29.67,WNW,292,3.7,-999.0,94,-99.99,,,0.00,Acu-Link.com,2013-06-09 14:01:00,
2013-06-09 07:16:00,57.9,55.9,29.67,West,270,2.7,-999.0,93,-99.99,,,0.00,Acu-Link.com,2013-06-09 14:16:00,
2013-06-09 07:31:00,59.0,56.1,29.67,ESE,112,2.2,-999.0,90,-99.99,,,0.00,Acu-Link.com,2013-06-09 14:31:00,
2013-06-09 07:46:00,59.4,56.5,29.67,SSE,157,4.2,-999.0,90,-99.99,,,0.00,Acu-Link.com,2013-06-09 14:46:00,
2013-06-09 08:02:00,61.7,56.5,29.68,NNW,337,5.3,-999.0,83,-99.99,,,0.00,Acu-Link.com,2013-06-09 15:02:00,
2013-06-09 08:17:00,61.0,56.1,29.68,NNW,337,7.8,-999.0,84,-99.99,,,0.00,Acu-Link.com,2013-06-09 15:17:00,
2013-06-09 08:32:00,61.7,56.5,29.69,NNE,22,4.2,-999.0,83,-99.99,,,0.00,Acu-Link.com,2013-06-09 15:32:00,
2013-06-09 08:47:00,62.2,56.3,29.69,ESE,112,3.7,-999.0,81,-99.99,,,0.00,Acu-Link.com,2013-06-09 15:47:00,
2013-06-09 09:02:00,62.1,56.2,29.69,West,270,8.3,-999.0,81,-99.99,,,0.00,Acu-Link.com,2013-06-09 16:02:00,
2013-06-09 09:17:00,62.1,56.2,29.69,NNE,22,7.8,-999.0,81,-99.99,,,0.00,Acu-Link.com,2013-06-09 16:17:00,
2013-06-09 09:32:00,62.2,56.6,29.69,NNW,337,6.3,-999.0,82,-99.99,,,0.00,Acu-Link.com,2013-06-09 16:32:00,
2013-06-09 09:47:00,61.3,55.8,29.69,WSW,247,8.9,-999.0,82,-99.99,,,0.00,Acu-Link.com,2013-06-09 16:47:00,
2013-06-09 10:03:00,63.3,56.3,29.69,NNW,337,8.3,-999.0,78,-99.99,,,0.00,Acu-Link.com,2013-06-09 17:03:00,
2013-06-09 10:18:00,64.4,56.7,29.69,SSE,157,7.8,-999.0,76,-99.99,,,0.00,Acu-Link.com,2013-06-09 17:18:00,
2013-06-09 10:33:00,63.7,56.3,29.69,West,270,8.3,-999.0,77,-99.99,,,0.00,Acu-Link.com,2013-06-09 17:33:00,
2013-06-09 10:48:00,64.8,56.7,29.69,NE,45,9.4,-999.0,75,-99.99,,,0.00,Acu-Link.com,2013-06-09 17:48:00,
2013-06-09 11:03:00,65.7,56.8,29.70,NNW,337,5.3,-999.0,73,-99.99,,,0.00,Acu-Link.com,2013-06-09 18:03:00,
2013-06-09 11:18:00,66.2,56.5,29.69,NW,315,9.4,-999.0,71,-99.99,,,0.00,Acu-Link.com,2013-06-09 18:18:00,
2013-06-09 11:33:00,66.7,56.6,29.70,West,270,6.3,-999.0,70,-99.99,,,0.00,Acu-Link.com,2013-06-09 18:33:00,
2013-06-09 11:48:00,67.6,57.1,29.69,WNW,292,4.2,-999.0,69,-99.99,,,0.00,Acu-Link.com,2013-06-09 18:48:00,
2013-06-09 12:04:00,66.7,56.2,29.70,West,270,7.8,-999.0,69,-99.99,,,0.00,Acu-Link.com,2013-06-09 19:04:00,
2013-06-09 12:19:00,66.9,56.4,29.70,West,270,9.4,-999.0,69,-99.99,,,0.00,Acu-Link.com,2013-06-09 19:19:00,
2013-06-09 12:34:00,66.7,56.2,29.70,West,270,5.3,-999.0,69,-99.99,,,0.00,Acu-Link.com,2013-06-09 19:34:00,
2013-06-09 12:49:00,66.9,56.0,29.70,NNW,337,8.3,-999.0,68,-99.99,,,0.00,Acu-Link.com,2013-06-09 19:49:00,
2013-06-09 13:04:00,66.2,55.7,29.70,ESE,112,5.3,-999.0,69,-99.99,,,0.00,Acu-Link.com,2013-06-09 20:04:00,
2013-06-09 13:19:00,66.2,56.1,29.71,NNW,337,9.4,-999.0,70,-99.99,,,0.00,Acu-Link.com,2013-06-09 20:19:00,
2013-06-09 13:34:00,66.0,56.3,29.71,NE,45,7.8,-999.0,71,-99.99,,,0.00,Acu-Link.com,2013-06-09 20:34:00,
2013-06-09 13:49:00,65.1,55.5,29.70,West,270,9.4,-999.0,71,-99.99,,,0.00,Acu-Link.com,2013-06-09 20:49:00,
2013-06-09 14:04:00,63.9,55.4,29.71,SE,135,6.8,-999.0,74,-99.99,,,0.00,Acu-Link.com,2013-06-09 21:04:00,
2013-06-09 14:20:00,62.8,55.5,29.70,NW,315,4.7,-999.0,77,-99.99,,,0.00,Acu-Link.com,2013-06-09 21:20:00,
2013-06-09 14:35:00,61.5,55.3,29.71,SSW,202,5.8,-999.0,80,-99.99,,,0.00,Acu-Link.com,2013-06-09 21:35:00,
2013-06-09 14:50:00,61.7,55.5,29.71,West,270,7.8,-999.0,80,-99.99,,,0.00,Acu-Link.com,2013-06-09 21:50:00,
2013-06-09 15:06:00,59.7,54.9,29.71,WNW,292,6.8,-999.0,84,-99.99,,,0.00,Acu-Link.com,2013-06-09 22:06:00,
2013-06-09 15:21:00,59.9,55.4,29.71,WNW,292,8.9,-999.0,85,-99.99,,,0.00,Acu-Link.com,2013-06-09 22:21:00,
2013-06-09 15:51:00,60.3,55.8,29.70,West,270,3.7,-999.0,85,-99.99,,,0.00,Acu-Link.com,2013-06-09 22:51:00,
2013-06-09 16:06:00,59.5,55.3,29.70,WNW,292,8.9,-999.0,86,-99.99,,,0.00,Acu-Link.com,2013-06-09 23:06:00,
2013-06-09 16:22:00,59.4,55.8,29.70,North,0,3.2,-999.0,88,-99.99,,,0.00,Acu-Link.com,2013-06-09 23:22:00,
2013-06-09 16:37:00,59.2,56.0,29.69,WNW,292,4.7,-999.0,89,-99.99,,,0.00,Acu-Link.com,2013-06-09 23:37:00,
2013-06-09 16:52:00,59.7,55.8,29.70,WNW,292,6.3,-999.0,87,-99.99,,,0.00,Acu-Link.com,2013-06-09 23:52:00,
2013-06-09 17:07:00,60.3,55.8,29.69,NNW,337,11.4,-999.0,85,-99.99,,,0.00,Acu-Link.com,2013-06-10 00:07:00,
2013-06-09 17:22:00,60.1,55.9,29.70,NNW,337,6.3,-999.0,86,-99.99,,,0.00,Acu-Link.com,2013-06-10 00:22:00,
2013-06-09 17:37:00,61.2,55.7,29.69,WNW,292,7.8,-999.0,82,-99.99,,,0.00,Acu-Link.com,2013-06-10 00:37:00,
2013-06-09 17:52:00,59.5,55.0,29.69,NNW,337,8.3,-999.0,85,-99.99,,,0.00,Acu-Link.com,2013-06-10 00:52:00,
2013-06-09 18:07:00,60.4,55.5,29.69,NNW,337,5.3,-999.0,84,-99.99,,,0.00,Acu-Link.com,2013-06-10 01:07:00,
2013-06-09 18:23:00,61.9,55.3,29.70,NNW,337,7.8,-999.0,79,-99.99,,,0.00,Acu-Link.com,2013-06-10 01:23:00,
2013-06-09 18:38:00,60.4,54.9,29.69,NNW,337,6.3,-999.0,82,-99.99,,,0.00,Acu-Link.com,2013-06-10 01:38:00,
2013-06-09 18:53:00,59.2,55.0,29.69,West,270,7.8,-999.0,86,-99.99,,,0.00,Acu-Link.com,2013-06-10 01:53:00,
2013-06-09 19:08:00,59.7,54.9,29.70,NNW,337,5.3,-999.0,84,-99.99,,,0.00,Acu-Link.com,2013-06-10 02:08:00,
2013-06-09 19:23:00,59.0,54.8,29.69,WNW,292,4.2,-999.0,86,-99.99,,,0.00,Acu-Link.com,2013-06-10 02:23:00,
2013-06-09 19:39:00,58.6,55.1,29.70,NNW,337,4.7,-999.0,88,-99.99,,,0.00,Acu-Link.com,2013-06-10 02:39:00,
2013-06-09 19:54:00,58.5,55.3,29.69,NE,45,4.7,-999.0,89,-99.99,,,0.00,Acu-Link.com,2013-06-10 02:54:00,
2013-06-09 20:11:00,57.9,55.0,29.70,WSW,247,6.3,-999.0,90,-99.99,,,0.00,Acu-Link.com,2013-06-10 03:11:00,
2013-06-09 20:27:00,57.9,55.0,29.69,ESE,112,2.2,-999.0,90,-99.99,,,0.00,Acu-Link.com,2013-06-10 03:27:00,
2013-06-09 20:42:00,57.9,55.0,29.70,NNW,337,4.7,-999.0,90,-99.99,,,0.00,Acu-Link.com,2013-06-10 03:42:00,
2013-06-09 20:58:00,58.1,55.2,29.69,WNW,292,6.3,-999.0,90,-99.99,,,0.00,Acu-Link.com,2013-06-10 03:58:00,
2013-06-09 21:13:00,57.9,55.0,29.69,NE,45,2.2,-999.0,90,-99.99,,,0.00,Acu-Link.com,2013-06-10 04:13:00,
2013-06-09 21:29:00,57.7,55.1,29.69,North,0,2.7,-999.0,91,-99.99,,,0.00,Acu-Link.com,2013-06-10 04:29:00,
2013-06-09 21:44:00,57.7,55.1,29.71,WNW,292,2.7,-999.0,91,-99.99,,,0.00,Acu-Link.com,2013-06-10 04:44:00,
2013-06-09 22:01:00,57.6,55.0,29.69,NW,315,1.7,-999.0,91,-99.99,,,0.00,Acu-Link.com,2013-06-10 05:01:00,
2013-06-09 22:16:00,57.7,55.1,29.71,North,0,0.0,-999.0,91,-99.99,,,0.00,Acu-Link.com,2013-06-10 05:16:00,
2013-06-09 22:32:00,57.7,55.1,29.71,WNW,292,4.7,-999.0,91,-99.99,,,0.00,Acu-Link.com,2013-06-10 05:32:00,
2013-06-09 22:47:00,57.7,55.1,29.70,NE,45,3.7,-999.0,91,-99.99,,,0.00,Acu-Link.com,2013-06-10 05:47:00,
2013-06-09 23:02:00,57.6,55.0,29.71,West,270,3.7,-999.0,91,-99.99,,,0.00,Acu-Link.com,2013-06-10 06:02:00,
2013-06-09 23:17:00,57.6,55.0,29.71,ESE,112,1.7,-999.0,91,-99.99,,,0.00,Acu-Link.com,2013-06-10 06:17:00,
2013-06-09 23:33:00,57.6,55.0,29.72,East,90,4.7,-999.0,91,-99.99,,,0.00,Acu-Link.com,2013-06-10 06:33:00,
2013-06-09 23:48:00,57.6,55.0,29.72,West,270,4.7,-999.0,91,-99.99,,,0.00,Acu-Link.com,2013-06-10 06:48:00,